METAR Data
IDs: Format: Raw Decoded Include TAF

Data at: 0035 UTC 25 Apr 2019

PAKT 242353Z 14009KT 10SM SCT020 OVC030 06/03 A3043 RMK AO2 RAE53 SLP305 P0004 60008 T00560028 10067 20044 50002
PAKT 242253Z 11008KT 10SM -RA SCT020 OVC030 06/02 A3043 RMK AO2 SLP306 HARBOR WIND 11005KT P0003 T00560022
PAKT 242153Z 11008KT 10SM -RA FEW030 OVC038 06/02 A3042 RMK AO2 RAB27 SLP303 HARBOR WIND 10005KT P0000 T00560017
PAKT 242053Z 12007KT 10SM FEW015 SCT030 OVC100 05/01 A3042 RMK AO2 RAE07 SLP303 HARBOR WIND 12004KT P0000 60001 T00500011 51012
PAKT 241953Z 00000KT 5SM -RA FEW030 OVC040 05/00 A3041 RMK AO2 RAB50 SLP300 HARBOR WIND 14004KT P0001 T00500000
PAKT 241853Z 00000KT 10SM SCT033 BKN042 OVC060 06/M01 A3040 RMK AO2 SLP296 HARBOR WIND 08004KT T00611006
PAKT 241753Z 13005KT 10SM SCT028 SCT038 BKN110 05/01 A3039 RMK AO2 SLP291 HARBOR WIND 17005KT 60007 T00500006 10056 20006 51016
PAKT 241653Z 13005KT 10SM SCT025 BKN033 05/02 A3037 RMK AO2 SLP285 HARBOR WIND 14005KT T00500017
PAKT 241553Z 18003KT 10SM SCT020 BKN060 03/02 A3036 RMK SLP282 HARBOR WIND 11005KT T00330022 VIA AUTODIAL
PAKT 241453Z 15005KT 10SM SCT007 BKN030 02/02 A3034 RMK AO2 RAE04 SLP275 HARBOR WND VRB05KT P0000 60007 T00220017 53006
PAKT 241405Z 18004KT 10SM SCT007 OVC012 02/01 A3033 RMK AO2 RAE04 HARBOR WND 09005KT P0000 T00170011
PAKT 241353Z AUTO 17004KT 10SM -RA OVC007 02/01 A3033 RMK RAB33SNE33 SLP272 P0002 T00170011 TSNO VIA AUTODIAL
PAKT 241305Z AUTO 16004KT 3SM -SN BR OVC009 01/01 A3033 RMK AO2 CIG 006V012 P0001 T00110006 TSNO
PAKT 241253Z AUTO 15006KT 5SM -SN BR OVC011 01/00 A3033 RMK AO2 RAE15B37E40SNB15 SLP271 P0005 T00110000 TSNO
PAKT 241230Z AUTO 18006KT 3SM -SN BR BKN012 OVC017 01/00 A3033 RMK AO2 RAE15SNB15 P0004 T00110000 TSNO
PAKT 241227Z AUTO 16007KT 2SM -SN BR SCT009 OVC016 01/00 A3033 RMK AO2 RAE15SNB15 P0004 T00110000 TSNO
PAKT 241219Z AUTO 15008KT 3SM -SN BR FEW009 SCT014 OVC024 02/01 A3033 RMK AO2 RAE15SNB15 P0002 T00170006 TSNO
PAKT 241153Z AUTO 15006KT 10SM -RA BKN037 OVC045 02/01 A3032 RMK AO2 RAB37 SLP269 P0001 60001 70018 T00220006 10022 20006 58001 TSNO
PAKT 241053Z AUTO 16006KT 10SM BKN075 OVC095 02/00 A3033 RMK AO2 SLP273 T00170000 TSNO
PAKT 240953Z AUTO 14005KT 10SM SCT120 01/M01 A3033 RMK AO2 SLP272 T00111006 TSNO
PAKT 240853Z AUTO 15004KT 10SM CLR 01/M01 A3033 RMK AO2 SLP270 60000 T00111006 400830006 51019 TSNO
PAKT 240753Z AUTO 17004KT 10SM CLR 01/M01 A3031 RMK AO2 RAB01E28 SLP265 P0000 T00111006 TSNO
PAKT 240732Z AUTO 13004KT 10SM SCT022 SCT060 02/00 A3031 RMK AO2 RAB01E28 P0000 T00170000 TSNO
PAKT 240725Z AUTO 13004KT 10SM -RA BKN025 BKN060 02/00 A3031 RMK AO2 RAB01 P0000 T00170000 TSNO
PAKT 240653Z AUTO 00000KT 10SM SCT043 SCT050 BKN075 02/00 A3030 RMK AO2 SLP260 T00170000 TSNO
PAKT 240553Z AUTO 22005KT 10SM CLR 01/M01 A3027 RMK AO2 RAB09E30 SLP252 P0000 60002 T00061006 10072 20006 51019 TSNO
PAKT 240453Z 23004KT 10SM SCT050 01/M01 A3026 RMK SLP247 T00061006 VIA AUTODIAL
PAKT 240353Z VRB03KT 10SM SCT030 OVC043 03/01 A3024 RMK AO2 RAE0258B14E51 SLP240 P0002 T00280006
PAKT 240253Z VRB04KT 10SM -RA FEW035 SCT065 BKN080 05/M02 A3021 RMK AO2 RAB46 SLP232 HARBOR WIND 25007KT P0000 60000 T00501022 53012
PAKT 240153Z VRB03KT 10SM SCT050 BKN100 06/M02 A3020 RMK AO2 SLP227 HARBOR WIND VRB06KT T00611022
PAKT 240053Z VRB05KT 10SM SCT048 SCT100 06/M02 A3019 RMK AO2 SLP225 HARBOR WIND 26010KT T00611017
PAKT 232353Z 35008KT 10SM FEW046 SCT060 BKN070 07/01 A3018 RMK AO2 SLP221 HARBOR WIND 30005KT 60003 T00720006 10083 20044 53017
PAKT 232253Z COR VRB04KT 10SM SCT044 BKN055 07/M01 A3016 RMK AO2 SLP214 HARBOR WIND 23007KT T00721011
PAKT 232153Z VRB03KT 10SM SCT050 BKN075 08/M01 A3014 RMK SLP208 HARBOR WIND 27006KT T00781006 VIA AUTODIAL
PAKT 232131Z VRB04KT 10SM SCT038 BKN060 BKN075 07/00 A3014 RMK AO2 HARBOR WIND 32006KT T00720000
PAKT 232053Z VRB04KT 10SM FEW035 SCT046 BKN060 08/01 A3013 RMK AO2 RAE1958 SLP203 HARBOR WIND 12005KT P0000 60003 T00780011 51010
PAKT 232005Z VRB04KT 10SM BKN023 BKN030 OVC100 07/03 A3013 RMK AO2 RAE1958 P0000 T00670028
PAKT 231953Z 10SM -RA BKN023 BKN028 06/03 A3013 RMK AO2 RAB25 SLP202 HARBOR WIND 30005KT P0003 T00560028
PAKT 231946Z VRB03KT 10SM RA BKN023 BKN028 04/02 A3012 RMK AO2 RAB25 P0003 T00440017
PAKT 231853Z 13006KT 10SM FEW010 SCT060 OVC075 05/03 A3011 RMK AO2 RAB08E22 SLP195 HARBOR WIND 09005KT P0000 T00500033
PAKT 231823Z VRB03KT 10SM FEW022 BKN048 OVC080 05/03 A3010 RMK AO2 RAB08E22 HARBOR WIND 11005KT P0000 T00500033
PAKT 231753Z 13005KT 10SM SCT036 BKN065 OVC080 05/03 A3010 RMK AO2 RAE41 SLP193 P0003 60012 T00500033 10050 20033 53008
PAKT 231653Z 14010KT 4SM -RA BR OVC021 04/03 A3009 RMK AO2 SLP189 HARBOR WIND 13005KT P0004 T00440033
PAKT 231553Z 14010KT 3SM -RA BR BKN021 OVC028 04/03 A3008 RMK AO2 SLP187 HARBOR WIND 13005KT P0003 T00440028
PAKT 231453Z 14011KT 9SM -RA BKN025 BKN034 OVC047 04/02 A3008 RMK AO2 SLP185 HARBOR WIND 11005KT P0000 60002 T00440022 58001
PAKT 231411Z 13011KT 8SM -RA SCT030 BKN043 OVC070 04/02 A3007 RMK AO2 HARBOR WIND 09010KT P0000 T00390022
PAKT 231353Z AUTO 14008KT 7SM -RA SCT023 OVC030 04/02 A3007 RMK AO2 RAB23 SLP185 P0001 T00390022 TSNO
PAKT 231349Z AUTO 14008KT 5SM -RA BR BKN025 OVC036 04/02 A3008 RMK AO2 RAB23 P0001 TSNO
PAKT 231301Z AUTO 12009KT 10SM SCT025 SCT060 OVC080 04/02 A3008 RMK AO2 T00390022 TSNO